This is the latest recevied weather packets stored in our database for station/object K2ATL. If no packets are shown the sender has not sent any weather packets the latest 10 day(s).
| Time | Temp. | Humidity | Pressure | Rain* | Wind** | Luminosity | Snow |
|---|---|---|---|---|---|---|---|
| 1788041564 | 21.11° C | 96% | 1106.2 hPa | 0 mm | - | 167 W/m² | - |
| 1788041263 | 19.44° C | 96% | 1106.2 hPa | 0 mm | - | 277 W/m² | - |
| 1788040962 | 20.56° C | 95% | 1106.1 hPa | 1.78 mm | - | 144 W/m² | - |
| 1788040661 | 20° C | 94% | 1106.3 hPa | 4.83 mm | - | 344 W/m² | - |
| 1788040356 | 21.67° C | 90% | 1106.2 hPa | 7.87 mm | - | 115 W/m² | - |
| 1788040051 | 25.56° C | 83% | 1105.8 hPa | 1.78 mm | - | 69 W/m² | - |
| 1788039747 | 30° C | 66% | 1106.4 hPa | 0 mm | - | 84 W/m² | - |
| 1788039446 | 28.89° C | 66% | 1106.4 hPa | 0 mm | - | 431 W/m² | - |
| 1788039142 | 28.89° C | 66% | 1106.4 hPa | 0 mm | - | 537 W/m² | - |
| 1788038838 | 27.78° C | 71% | 1106.3 hPa | 0 mm | - | 547 W/m² | - |
| 1788038532 | 27.78° C | 72% | 1106.3 hPa | 0 mm | - | 584 W/m² | - |
| 1788038231 | 27.78° C | 71% | 1106.2 hPa | 0 mm | - | 604 W/m² | - |
| 1788037927 | 26.67° C | 73% | 1106.1 hPa | 0 mm | - | 592 W/m² | - |
| 1788037621 | 23.89° C | 80% | 1106.1 hPa | 0 mm | - | 498 W/m² | - |
| 1788037316 | 25° C | 81% | 1106.1 hPa | 0 mm | - | 159 W/m² | - |
| 1788037015 | 25° C | 81% | 1106.3 hPa | 0 mm | - | 126 W/m² | - |
| 1788036712 | 25° C | 79% | 1106.2 hPa | 0 mm | - | 143 W/m² | - |
| 1788036409 | 24.44° C | 82% | 1106.3 hPa | 0 mm | - | 155 W/m² | - |
| 1788036108 | 25° C | 82% | 1106.5 hPa | 0 mm | - | 138 W/m² | - |
| 1788035808 | 25° C | 81% | 1106.3 hPa | 0 mm | - | 161 W/m² | - |
| 1788035504 | 25° C | 83% | 1106.5 hPa | 0 mm | - | 219 W/m² | - |
| 1788035198 | 26.11° C | 81% | 1106.6 hPa | 0 mm | - | 106 W/m² | - |
| 1788034895 | 25.56° C | 82% | 1106.4 hPa | 0 mm | - | 107 W/m² | - |
| 1788034590 | 25.56° C | 81% | 1106.4 hPa | 0 mm | - | 108 W/m² | - |
| 1788034286 | 25.56° C | 82% | 1106.6 hPa | 0 mm | - | 114 W/m² | - |
* Rain latest hour (hover to see other rain measurements)
** Current wind speed in m/s (hover to see current wind gust speed)